CheckWX is a tool to help pilots better visualize weather data.  It is not intended as a substitute for an official pre-flight weather briefing.

18:36:08 UTC

KGCY METAR
Greeneville-Greene County Municipal Airport
Greeneville, Tennessee, USA
Current

21 mins ago

KGCY 221815Z AUTO 00000KT 6SM BR OVC009 10/09 A3024 RMK A01
Observed
Feb-22 @ 18:15 UTC
Visibility
6 SM
Flight Rules
IFR
Conditions
Mist
Cloud Levels
  • Overcast at 900' AGL
Temperature
10°C / 50°F
Dewpoint
C / 48°F
Humidity
94%
Altimeter
30.24" Hg
Pressure
1024.02 hPa
Previous

41 mins ago

KGCY 221755Z AUTO 04006KT 9SM BKN011 OVC070 11/09 A3023 RMK A01
Observed
Feb-22 @ 17:55 UTC
Wind
  • 040° at 6 KTS
Visibility
9 SM
Flight Rules
MVFR
Cloud Levels
  • Broken at 1,100' AGL
  • Overcast at 7,000' AGL
Temperature
11°C / 52°F
Dewpoint
C / 48°F
Humidity
88%
Altimeter
30.23" Hg
Pressure
1023.72 hPa
Previous

1 hour ago

KGCY 221735Z AUTO 03006KT 10SM BKN010 OVC065 11/09 A3024 RMK A01
Observed
Feb-22 @ 17:35 UTC
Wind
  • 030° at 6 KTS
Visibility
10 SM
Flight Rules
MVFR
Cloud Levels
  • Broken at 1,000' AGL
  • Overcast at 6,500' AGL
Temperature
11°C / 52°F
Dewpoint
C / 48°F
Humidity
88%
Altimeter
30.24" Hg
Pressure
1024.02 hPa